CSAV Brasilia — A8VK7 — position and weather

sailwx.info

Track history (hours):
 
Tides and Currents Weather Stations Pressure Air Temp Water Temp Dewpoint Dewpoint Depression Visibility Wind Speed Wind Dir Waves Ship Positions

CSAV Brasilia

Last reported at 2015-May-26 11:23 UTC. Time now 2015-May-27 09:58 UTC.
Position N 49°57' W 003°19'.

Length 294 m; draft 13.4 m.

Type: Cargo ship. MMSI: 636092017.

Date/timePositionNaut miles runAvg speedWind from/ knotsBaromVisibWave heightAir tempDewpointWater temp
2015-May-26 11:23N 49°57' W 003°19'2220.8
2015-May-26 10:20N 50°00' W 002°45'3720.3
2015-May-26 08:32N 49°58' W 001°48'3022.3
2015-May-26 07:12N 49°47' W 001°05'1422.3
2015-May-26 06:33N 49°42' W 000°45'2120.7
2015-May-26 05:34N 49°34' W 000°15'1414.5
2015-May-26 04:33N 49°29' E 000°05'2 2.2
2015-May-26 03:31N 49°28' E 000°09'0 0.0
2015-May-26 02:31N 49°28' E 000°09'0 0.0
2015-May-26 01:31N 49°28' E 000°09'0 0.0
2015-May-26 00:31N 49°28' E 000°09'0 0.0
2015-May-25 23:31N 49°28' E 000°09'0 0.0
2015-May-25 22:31N 49°28' E 000°09'0 0.0
2015-May-25 21:31N 49°28' E 000°09'0 0.0
2015-May-25 20:31N 49°28' E 000°09'0 0.0
2015-May-25 19:33N 49°28' E 000°09'0 0.0
2015-May-25 18:32N 49°28' E 000°09'0 0.0
2015-May-25 17:32N 49°28' E 000°09'0 0.0
2015-May-25 16:30N 49°28' E 000°09'0 0.0
2015-May-25 15:32N 49°28' E 000°09'0 0.0
2015-May-25 14:32N 49°28' E 000°09'0 0.0
2015-May-25 13:32N 49°28' E 000°09'0 0.0
2015-May-25 12:32N 49°28' E 000°09'0 0.0
2015-May-25 11:32N 49°28' E 000°09'1 0.6
2015-May-25 10:33N 49°28' E 000°08'1211.6
2015-May-25 09:33N 49°32' W 000°09'1312.9
2015-May-25 08:33N 49°42' W 000°22'5718.5
2015-May-25 05:28N 50°33' E 000°18'1719.3
2015-May-25 04:34N 50°40' E 000°44'1818.3
2015-May-25 03:33N 50°50' E 001°08'1817.8
2015-May-25 02:34N 51°02' E 001°28'2019.5
2015-May-25 01:34N 51°18' E 001°48'1414.0
2015-May-25 00:34N 51°22' E 002°09'1817.8
2015-May-24 23:33N 51°23' E 002°38'1313.1
2015-May-24 22:34N 51°25' E 002°59'1515.3
2015-May-24 21:33N 51°25' E 003°23'1312.6
2015-May-24 20:33N 51°23' E 003°43'1211.2
2015-May-24 19:30N 51°24' E 004°02'9 9.9
2015-May-24 18:34N 51°21' E 004°16'1 0.9
2015-May-24 17:34N 51°21' E 004°17'2 1.6
2015-May-24 16:33N 51°19' E 004°19'1 1.0
2015-May-24 15:33N 51°20' E 004°20'0 0.0
2015-May-24 14:24N 51°20' E 004°20'0 0.0
2015-May-24 13:27N 51°20' E 004°20'0 0.0
2015-May-24 12:33N 51°20' E 004°20'0 0.0
2015-May-24 11:21N 51°20' E 004°20'0 0.0
2015-May-24 10:33N 51°20' E 004°20'0 0.0
2015-May-24 09:27N 51°20' E 004°20'0 0.0
2015-May-24 08:33N 51°20' E 004°20'0 0.0
2015-May-24 07:31N 51°20' E 004°20'0 0.0
2015-May-24 06:31N 51°20' E 004°20'0 0.0
2015-May-24 05:31N 51°20' E 004°20'0 0.0
2015-May-24 04:32N 51°20' E 004°20'0 0.0
2015-May-24 03:26N 51°20' E 004°20'0 0.0
2015-May-24 02:32N 51°20' E 004°20'0 0.0
2015-May-24 01:26N 51°20' E 004°20'0 0.0
2015-May-24 00:32N 51°20' E 004°20'0 0.0
2015-May-23 23:32N 51°20' E 004°20'0 0.0
2015-May-23 22:26N 51°20' E 004°20'0 0.0
2015-May-23 21:32N 51°20' E 004°20'0 0.0
2015-May-23 20:32N 51°20' E 004°20'0 0.0
2015-May-23 19:32N 51°20' E 004°20'0 0.0
2015-May-23 18:33N 51°20' E 004°20'0 0.0
2015-May-23 17:33N 51°20' E 004°20'0 0.0
2015-May-23 16:32N 51°20' E 004°20'0 0.0
2015-May-23 15:31N 51°20' E 004°20'0 0.0
2015-May-23 14:31N 51°20' E 004°20'0 0.0
2015-May-23 13:33N 51°20' E 004°20'0 0.0
2015-May-23 12:25N 51°20' E 004°20'0 0.0
2015-May-23 11:31N 51°20' E 004°20'0 0.0
2015-May-23 10:33N 51°20' E 004°20'0 0.0
2015-May-23 09:32N 51°20' E 004°20'0 0.0
2015-May-23 08:28N 51°20' E 004°20'0 0.0
2015-May-23 07:28N 51°20' E 004°20'0 0.0
2015-May-23 06:31N 51°20' E 004°20'0 0.0
2015-May-23 05:31N 51°20' E 004°20'0 0.0
2015-May-23 04:25N 51°20' E 004°20'0 0.0
2015-May-23 03:31N 51°20' E 004°20'0 0.0
2015-May-23 02:31N 51°20' E 004°20'0 0.0
2015-May-23 01:31N 51°20' E 004°20'0 0.0
2015-May-23 00:31N 51°20' E 004°20'0 0.0
2015-May-22 23:31N 51°20' E 004°20'0 0.0
2015-May-22 22:29N 51°20' E 004°20'0 0.0
2015-May-22 21:32N 51°20' E 004°20'0 0.0
2015-May-22 20:32N 51°20' E 004°20'0 0.0
2015-May-22 19:32N 51°20' E 004°20'0 0.0
2015-May-22 18:32N 51°20' E 004°20'0 0.0
2015-May-22 17:32N 51°20' E 004°20'0 0.0
2015-May-22 16:29N 51°20' E 004°20'0 0.0
2015-May-22 15:32N 51°20' E 004°20'0 0.0
2015-May-22 14:32N 51°20' E 004°20'0 0.0
2015-May-22 13:32N 51°20' E 004°20'0 0.0
2015-May-22 12:32N 51°20' E 004°20'0 0.0
2015-May-22 11:32N 51°20' E 004°20'0 0.0
2015-May-22 10:32N 51°20' E 004°20'0 0.0
2015-May-22 09:32N 51°20' E 004°20'0 0.0
2015-May-22 08:26N 51°20' E 004°20'0 0.0
2015-May-22 07:29N 51°20' E 004°20'0 0.0
2015-May-22 06:32N 51°20' E 004°20'0 0.0
2015-May-22 05:32N 51°20' E 004°20'0 0.0
2015-May-22 04:32N 51°20' E 004°20'0 0.0
2015-May-22 03:32N 51°20' E 004°20'0 0.0
2015-May-22 02:32N 51°20' E 004°20'0 0.0
2015-May-22 01:32N 51°20' E 004°20'0 0.0
2015-May-22 00:32N 51°20' E 004°20'0 0.0
2015-May-21 23:29N 51°20' E 004°20'0 0.0
2015-May-21 22:32N 51°20' E 004°20'0 0.0
2015-May-21 21:34N 51°20' E 004°20'1 1.4
2015-May-21 20:34N 51°20' E 004°18'1 1.0
2015-May-21 19:34N 51°21' E 004°17'2 1.8
2015-May-21 18:34N 51°21' E 004°14'9 8.6
2015-May-21 17:33N 51°25' E 004°02'1111.5
2015-May-21 16:33N 51°22' E 003°44'1111.2
2015-May-21 15:33N 51°25' E 003°26'1717.1
2015-May-21 14:34N 51°26' E 002°59'1615.9
2015-May-21 13:33N 51°40' E 003°13'7 7.3
2015-May-21 12:33N 51°47' E 003°15'1413.2
2015-May-21 11:29N 52°01' E 003°20'1919.6
2015-May-21 10:30N 52°20' E 003°26'2021.3
2015-May-21 09:33N 52°39' E 003°34'2323.0
2015-May-21 08:33N 52°57' E 003°58'2221.8
2015-May-21 07:33N 53°12' E 004°25'2221.8
2015-May-21 06:34N 53°32' E 004°38'2322.4
2015-May-21 05:33N 53°54' E 004°51'2323.0
2015-May-21 04:33N 54°14' E 005°07'27921.4
2015-May-20 15:33N 57°48' E 010°27'2121.2
2015-May-20 14:34N 57°40' E 011°03'2322.7
2015-May-20 13:34N 57°23' E 011°31'2323.1
2015-May-20 12:34N 57°01' E 011°45'2019.9
2015-May-20 11:34N 56°41' E 011°44'12315.4
2015-May-20 03:33N 54°42' E 010°47'1515.2
2015-May-20 02:34N 54°36' E 011°11'1616.4
2015-May-20 01:34N 54°29' E 011°36'1616.3
2015-May-20 00:34N 54°26' E 012°04'1312.8
2015-May-19 23:32N 54°37' E 012°16'10 9.7
2015-May-19 22:33N 54°42' E 012°30'5718.2
2015-May-19 19:24N 54°40' E 014°10'2422.7
2015-May-19 18:21N 54°40' E 014°51'1823.1
2015-May-19 17:33N 54°43' E 015°22'9322.8
2015-May-19 13:27N 55°04' E 018°00'2022.3
2015-May-19 12:33N 55°12' E 018°33'  
2015-May-17 03:26N 54°55' E 016°14'100114.0
2015-May-17 02:33N 54°45' E 019°07'1716.6
2015-May-17 01:34N 54°32' E 018°49'1010.1
2015-May-17 00:33N 54°32' E 018°32'1 0.6
2015-May-16 23:29N 54°33' E 018°31'0 0.0
2015-May-16 22:33N 54°33' E 018°31'0 0.0
2015-May-16 21:33N 54°33' E 018°31'0 0.0
2015-May-16 20:33N 54°33' E 018°31'0 0.0
2015-May-16 19:33N 54°33' E 018°31'0 0.0
2015-May-16 18:33N 54°33' E 018°31'0 0.0
2015-May-16 17:33N 54°33' E 018°31'0 0.0
2015-May-16 16:33N 54°33' E 018°31'0 0.0
2015-May-16 15:33N 54°33' E 018°31'0 0.0
2015-May-16 14:34N 54°33' E 018°31'0 0.0
2015-May-16 13:33N 54°33' E 018°31'0 0.0
2015-May-16 12:33N 54°33' E 018°31'0 0.0
2015-May-16 11:32N 54°33' E 018°31'  
Track history (hours):
 
Tides and Currents Weather Stations Pressure Air Temp Water Temp Dewpoint Dewpoint Depression Visibility Wind Speed Wind Dir Waves Ship Positions

CSAV Brasilia

Last reported at 2015-May-26 11:23 UTC. Time now 2015-May-27 09:58 UTC.
Position N 49°57' W 003°19'.

Length 294 m; draft 13.4 m.

Type: Cargo ship. MMSI: 636092017.

Date/timePositionNaut miles runAvg speedWind from/ knotsBaromVisibWave heightAir tempDewpointWater temp
2015-May-26 11:23N 49°57' W 003°19'2220.8
2015-May-26 10:20N 50°00' W 002°45'3720.3
2015-May-26 08:32N 49°58' W 001°48'3022.3
2015-May-26 07:12N 49°47' W 001°05'1422.3
2015-May-26 06:33N 49°42' W 000°45'2120.7
2015-May-26 05:34N 49°34' W 000°15'1414.5
2015-May-26 04:33N 49°29' E 000°05'2 2.2
2015-May-26 03:31N 49°28' E 000°09'0 0.0
2015-May-26 02:31N 49°28' E 000°09'0 0.0
2015-May-26 01:31N 49°28' E 000°09'0 0.0
2015-May-26 00:31N 49°28' E 000°09'0 0.0
2015-May-25 23:31N 49°28' E 000°09'0 0.0
2015-May-25 22:31N 49°28' E 000°09'0 0.0
2015-May-25 21:31N 49°28' E 000°09'0 0.0
2015-May-25 20:31N 49°28' E 000°09'0 0.0
2015-May-25 19:33N 49°28' E 000°09'0 0.0
2015-May-25 18:32N 49°28' E 000°09'0 0.0
2015-May-25 17:32N 49°28' E 000°09'0 0.0
2015-May-25 16:30N 49°28' E 000°09'0 0.0
2015-May-25 15:32N 49°28' E 000°09'0 0.0
2015-May-25 14:32N 49°28' E 000°09'0 0.0
2015-May-25 13:32N 49°28' E 000°09'0 0.0
2015-May-25 12:32N 49°28' E 000°09'0 0.0
2015-May-25 11:32N 49°28' E 000°09'1 0.6
2015-May-25 10:33N 49°28' E 000°08'1211.6
2015-May-25 09:33N 49°32' W 000°09'1312.9
2015-May-25 08:33N 49°42' W 000°22'5718.5
2015-May-25 05:28N 50°33' E 000°18'1719.3
2015-May-25 04:34N 50°40' E 000°44'1818.3
2015-May-25 03:33N 50°50' E 001°08'1817.8
2015-May-25 02:34N 51°02' E 001°28'2019.5
2015-May-25 01:34N 51°18' E 001°48'1414.0
2015-May-25 00:34N 51°22' E 002°09'1817.8
2015-May-24 23:33N 51°23' E 002°38'1313.1
2015-May-24 22:34N 51°25' E 002°59'1515.3
2015-May-24 21:33N 51°25' E 003°23'1312.6
2015-May-24 20:33N 51°23' E 003°43'1211.2
2015-May-24 19:30N 51°24' E 004°02'9 9.9
2015-May-24 18:34N 51°21' E 004°16'1 0.9
2015-May-24 17:34N 51°21' E 004°17'2 1.6
2015-May-24 16:33N 51°19' E 004°19'1 1.0
2015-May-24 15:33N 51°20' E 004°20'0 0.0
2015-May-24 14:24N 51°20' E 004°20'0 0.0
2015-May-24 13:27N 51°20' E 004°20'0 0.0
2015-May-24 12:33N 51°20' E 004°20'0 0.0
2015-May-24 11:21N 51°20' E 004°20'0 0.0
2015-May-24 10:33N 51°20' E 004°20'0 0.0
2015-May-24 09:27N 51°20' E 004°20'0 0.0
2015-May-24 08:33N 51°20' E 004°20'0 0.0
2015-May-24 07:31N 51°20' E 004°20'0 0.0
2015-May-24 06:31N 51°20' E 004°20'0 0.0
2015-May-24 05:31N 51°20' E 004°20'0 0.0
2015-May-24 04:32N 51°20' E 004°20'0 0.0
2015-May-24 03:26N 51°20' E 004°20'0 0.0
2015-May-24 02:32N 51°20' E 004°20'0 0.0
2015-May-24 01:26N 51°20' E 004°20'0 0.0
2015-May-24 00:32N 51°20' E 004°20'0 0.0
2015-May-23 23:32N 51°20' E 004°20'0 0.0
2015-May-23 22:26N 51°20' E 004°20'0 0.0
2015-May-23 21:32N 51°20' E 004°20'0 0.0
2015-May-23 20:32N 51°20' E 004°20'0 0.0
2015-May-23 19:32N 51°20' E 004°20'0 0.0
2015-May-23 18:33N 51°20' E 004°20'0 0.0
2015-May-23 17:33N 51°20' E 004°20'0 0.0
2015-May-23 16:32N 51°20' E 004°20'0 0.0
2015-May-23 15:31N 51°20' E 004°20'0 0.0
2015-May-23 14:31N 51°20' E 004°20'0 0.0
2015-May-23 13:33N 51°20' E 004°20'0 0.0
2015-May-23 12:25N 51°20' E 004°20'0 0.0
2015-May-23 11:31N 51°20' E 004°20'0 0.0
2015-May-23 10:33N 51°20' E 004°20'0 0.0
2015-May-23 09:32N 51°20' E 004°20'0 0.0
2015-May-23 08:28N 51°20' E 004°20'0 0.0
2015-May-23 07:28N 51°20' E 004°20'0 0.0
2015-May-23 06:31N 51°20' E 004°20'0 0.0
2015-May-23 05:31N 51°20' E 004°20'0 0.0
2015-May-23 04:25N 51°20' E 004°20'0 0.0
2015-May-23 03:31N 51°20' E 004°20'0 0.0
2015-May-23 02:31N 51°20' E 004°20'0 0.0
2015-May-23 01:31N 51°20' E 004°20'0 0.0
2015-May-23 00:31N 51°20' E 004°20'0 0.0
2015-May-22 23:31N 51°20' E 004°20'0 0.0
2015-May-22 22:29N 51°20' E 004°20'0 0.0
2015-May-22 21:32N 51°20' E 004°20'0 0.0
2015-May-22 20:32N 51°20' E 004°20'0 0.0
2015-May-22 19:32N 51°20' E 004°20'0 0.0
2015-May-22 18:32N 51°20' E 004°20'0 0.0
2015-May-22 17:32N 51°20' E 004°20'0 0.0
2015-May-22 16:29N 51°20' E 004°20'0 0.0
2015-May-22 15:32N 51°20' E 004°20'0 0.0
2015-May-22 14:32N 51°20' E 004°20'0 0.0
2015-May-22 13:32N 51°20' E 004°20'0 0.0
2015-May-22 12:32N 51°20' E 004°20'0 0.0
2015-May-22 11:32N 51°20' E 004°20'0 0.0
2015-May-22 10:32N 51°20' E 004°20'0 0.0
2015-May-22 09:32N 51°20' E 004°20'0 0.0
2015-May-22 08:26N 51°20' E 004°20'0 0.0
2015-May-22 07:29N 51°20' E 004°20'0 0.0
2015-May-22 06:32N 51°20' E 004°20'0 0.0
2015-May-22 05:32N 51°20' E 004°20'0 0.0
2015-May-22 04:32N 51°20' E 004°20'0 0.0
2015-May-22 03:32N 51°20' E 004°20'0 0.0
2015-May-22 02:32N 51°20' E 004°20'0 0.0
2015-May-22 01:32N 51°20' E 004°20'0 0.0
2015-May-22 00:32N 51°20' E 004°20'0 0.0
2015-May-21 23:29N 51°20' E 004°20'0 0.0
2015-May-21 22:32N 51°20' E 004°20'0 0.0
2015-May-21 21:34N 51°20' E 004°20'1 1.4
2015-May-21 20:34N 51°20' E 004°18'1 1.0
2015-May-21 19:34N 51°21' E 004°17'2 1.8
2015-May-21 18:34N 51°21' E 004°14'9 8.6
2015-May-21 17:33N 51°25' E 004°02'1111.5
2015-May-21 16:33N 51°22' E 003°44'1111.2
2015-May-21 15:33N 51°25' E 003°26'1717.1
2015-May-21 14:34N 51°26' E 002°59'1615.9
2015-May-21 13:33N 51°40' E 003°13'7 7.3
2015-May-21 12:33N 51°47' E 003°15'1413.2
2015-May-21 11:29N 52°01' E 003°20'1919.6
2015-May-21 10:30N 52°20' E 003°26'2021.3
2015-May-21 09:33N 52°39' E 003°34'2323.0
2015-May-21 08:33N 52°57' E 003°58'2221.8
2015-May-21 07:33N 53°12' E 004°25'2221.8
2015-May-21 06:34N 53°32' E 004°38'2322.4
2015-May-21 05:33N 53°54' E 004°51'2323.0
2015-May-21 04:33N 54°14' E 005°07'27921.4
2015-May-20 15:33N 57°48' E 010°27'2121.2
2015-May-20 14:34N 57°40' E 011°03'2322.7
2015-May-20 13:34N 57°23' E 011°31'2323.1
2015-May-20 12:34N 57°01' E 011°45'2019.9
2015-May-20 11:34N 56°41' E 011°44'12315.4
2015-May-20 03:33N 54°42' E 010°47'1515.2
2015-May-20 02:34N 54°36' E 011°11'1616.4
2015-May-20 01:34N 54°29' E 011°36'1616.3
2015-May-20 00:34N 54°26' E 012°04'1312.8
2015-May-19 23:32N 54°37' E 012°16'10 9.7
2015-May-19 22:33N 54°42' E 012°30'5718.2
2015-May-19 19:24N 54°40' E 014°10'2422.7
2015-May-19 18:21N 54°40' E 014°51'1823.1
2015-May-19 17:33N 54°43' E 015°22'9322.8
2015-May-19 13:27N 55°04' E 018°00'2022.3
2015-May-19 12:33N 55°12' E 018°33'  
2015-May-17 03:26N 54°55' E 016°14'100114.0
2015-May-17 02:33N 54°45' E 019°07'1716.6
2015-May-17 01:34N 54°32' E 018°49'1010.1
2015-May-17 00:33N 54°32' E 018°32'1 0.6
2015-May-16 23:29N 54°33' E 018°31'0 0.0
2015-May-16 22:33N 54°33' E 018°31'0 0.0
2015-May-16 21:33N 54°33' E 018°31'0 0.0
2015-May-16 20:33N 54°33' E 018°31'0 0.0
2015-May-16 19:33N 54°33' E 018°31'0 0.0
2015-May-16 18:33N 54°33' E 018°31'0 0.0
2015-May-16 17:33N 54°33' E 018°31'0 0.0
2015-May-16 16:33N 54°33' E 018°31'0 0.0
2015-May-16 15:33N 54°33' E 018°31'0 0.0
2015-May-16 14:34N 54°33' E 018°31'0 0.0
2015-May-16 13:33N 54°33' E 018°31'0 0.0
2015-May-16 12:33N 54°33' E 018°31'0 0.0
2015-May-16 11:32N 54°33' E 018°31'  

Dump ship's entire track history